Time;durP1;ratioP1;P1;durP2;ratioP2;P2;SDS_P1;SDS_P2;PMS_P1;PMS_P2;Temp;Humidity;BMP_temperature;BMP_pressure;BME280_temperature;BME280_humidity;BME280_pressure;Samples;Min_cycle;Max_cycle;Signal;HPM_P1;HPM_P2
2022/08/01 00:00:20;;;;;;;10.55;5.35;;;;;;;17.55;100.00;100250.47;5133442;27;20407;-78
2022/08/01 00:02:45;;;;;;;;;;;;;;;17.63;100.00;100247.38;5133832;27;20390;-77
2022/08/01 00:05:10;;;;;;;10.90;5.13;;;;;;;17.73;100.00;100251.44;5133322;28;19918;-78
2022/08/01 00:07:36;;;;;;;;;;;;;;;17.60;100.00;100250.91;5134104;28;20023;-76
2022/08/01 00:10:08;;;;;;;10.48;5.13;;;;;;;17.60;100.00;100250.09;5133610;28;19911;-78
2022/08/01 00:12:33;;;;;;;11.18;5.43;;;;;;;17.54;100.00;100246.91;5133927;28;20077;-77
2022/08/01 00:14:59;;;;;;;10.45;5.78;;;;;;;17.51;100.00;100247.69;5133728;27;20059;-77
2022/08/01 00:17:27;;;;;;;;;;;;;;;17.50;100.00;100251.59;5134115;27;20023;-79
2022/08/01 00:19:52;;;;;;;12.25;5.50;;;;;;;17.51;100.00;100250.44;5119015;27;19921;-78
2022/08/01 00:22:17;;;;;;;11.77;5.85;;;;;;;17.51;100.00;100246.88;5138114;27;20031;-77
2022/08/01 00:24:43;;;;;;;;;;;;;;;17.54;100.00;100246.13;5138088;27;20130;-77
2022/08/01 00:27:08;;;;;;;11.77;5.57;;;;;;;17.54;100.00;100249.66;5119339;27;20392;-77
2022/08/01 00:29:33;;;;;;;12.88;5.97;;;;;;;17.58;100.00;100257.94;5137912;27;20027;-77
2022/08/01 00:32:00;;;;;;;14.23;6.18;;;;;;;17.55;100.00;100254.00;5137758;27;20031;-77
2022/08/01 00:34:25;;;;;;;12.82;6.25;;;;;;;17.54;100.00;100257.13;5137312;27;20038;-78
2022/08/01 00:36:50;;;;;;;13.32;5.90;;;;;;;17.54;100.00;100259.88;5119144;27;20027;-78
2022/08/01 00:39:15;;;;;;;;;;;;;;;17.53;100.00;100252.81;5137706;27;20030;-77
2022/08/01 00:41:41;;;;;;;11.83;6.13;;;;;;;17.53;100.00;100253.59;5137112;27;19915;-78
2022/08/01 00:44:06;;;;;;;;;;;;;;;17.50;100.00;100246.09;5137730;27;20023;-77
2022/08/01 00:46:32;;;;;;;10.93;5.65;;;;;;;17.54;100.00;100249.66;5137451;27;19965;-78
2022/08/01 00:48:59;;;;;;;14.48;6.78;;;;;;;17.51;100.00;100244.94;5137085;27;20474;-77
2022/08/01 00:51:25;;;;;;;15.90;6.65;;;;;;;17.53;100.00;100250.84;5137213;27;20027;-78
2022/08/01 00:53:51;;;;;;;16.00;6.47;;;;;;;17.58;100.00;100247.72;5136858;27;20043;-77
2022/08/01 00:56:17;;;;;;;14.00;7.00;;;;;;;17.51;100.00;100242.16;5137254;27;20054;-77
2022/08/01 00:58:43;;;;;;;;;;;;;;;17.52;100.00;100243.75;5137541;27;20064;-77
2022/08/01 01:01:09;;;;;;;14.35;7.13;;;;;;;17.50;100.00;100243.34;5137281;27;19956;-78
2022/08/01 01:03:34;;;;;;;;;;;;;;;17.50;100.00;100246.09;5118995;27;20027;-78
2022/08/01 01:06:23;;;;;;;13.25;6.60;;;;;;;17.53;100.00;100239.03;5136853;27;20017;-77
2022/08/01 01:09:11;;;;;;;17.33;7.93;;;;;;;17.51;100.00;100235.88;5137023;27;20027;-79
2022/08/01 01:11:57;;;;;;;15.00;6.70;;;;;;;17.53;100.00;100244.53;5137147;27;20450;-78
2022/08/01 01:14:35;;;;;;;16.52;7.55;;;;;;;17.53;100.00;100244.53;5137144;27;20060;-78
2022/08/01 01:17:02;;;;;;;15.80;6.90;;;;;;;17.53;100.00;100242.59;5136808;27;20107;-79
2022/08/01 01:19:30;;;;;;;16.35;7.05;;;;;;;17.53;100.00;100239.81;5136868;27;20058;-78
2022/08/01 01:22:21;;;;;;;17.13;6.70;;;;;;;17.52;100.00;100230.00;5118265;27;20492;-79
2022/08/01 01:25:09;;;;;;;15.45;6.65;;;;;;;17.51;100.00;100231.16;5136417;27;20081;-79
2022/08/01 01:28:11;;;;;;;14.60;6.82;;;;;;;17.52;100.00;100242.97;5136706;27;20023;-79
2022/08/01 01:30:40;;;;;;;14.77;6.05;;;;;;;17.48;100.00;100245.69;5136281;27;20047;-78
2022/08/01 01:33:10;;;;;;;17.15;7.13;;;;;;;17.51;100.00;100253.19;5136902;27;20035;-78
2022/08/01 01:35:41;;;;;;;14.52;6.50;;;;;;;17.52;100.00;100246.50;5136529;27;20428;-78
2022/08/01 01:38:27;;;;;;;14.23;5.68;;;;;;;17.49;100.00;100244.50;5136522;27;20027;-78
2022/08/01 01:40:55;;;;;;;12.50;6.63;;;;;;;17.44;100.00;100245.63;5136532;27;20031;-78
2022/08/01 01:43:22;;;;;;;15.45;6.80;;;;;;;17.49;100.00;100254.72;5136341;27;20042;-78
2022/08/01 01:45:49;;;;;;;16.55;7.13;;;;;;;17.53;100.00;100256.34;5136408;27;20023;-78
2022/08/01 01:48:18;;;;;;;13.48;6.45;;;;;;;17.51;100.00;100253.19;5136390;27;20105;-78
2022/08/01 01:50:46;;;;;;;13.63;6.93;;;;;;;17.54;100.00;100263.44;5117745;27;20353;-78
2022/08/01 01:53:15;;;;;;;14.05;6.60;;;;;;;17.53;100.00;100256.34;5135931;27;20160;-79
2022/08/01 01:55:43;;;;;;;15.30;6.57;;;;;;;17.53;100.00;100261.06;5117881;27;20038;-79
2022/08/01 01:58:12;;;;;;;16.90;8.10;;;;;;;17.48;100.00;100253.94;5135870;27;20027;-78
2022/08/01 02:00:39;;;;;;;21.77;8.13;;;;;;;17.48;100.00;100253.94;5135946;27;20031;-78
2022/08/01 02:03:07;;;;;;;17.77;8.00;;;;;;;17.49;100.00;100255.53;5117373;27;20433;-79
2022/08/01 02:05:35;;;;;;;17.20;7.28;;;;;;;17.48;100.00;100256.69;5135776;27;20038;-79
2022/08/01 02:08:03;;;;;;;17.48;7.20;;;;;;;17.53;100.00;100255.56;5135770;27;20026;-81
2022/08/01 02:10:30;;;;;;;19.13;8.15;;;;;;;17.55;100.00;100254.00;5136165;27;20034;-80
2022/08/01 02:12:59;;;;;;;18.42;7.30;;;;;;;17.55;100.00;100253.22;5136214;27;20038;-82
2022/08/01 02:15:27;;;;;;;16.48;7.70;;;;;;;17.50;100.00;100253.56;5135728;27;20027;-81
2022/08/01 02:17:54;;;;;;;16.85;6.88;;;;;;;17.50;100.00;100248.84;5117249;27;20418;-81
2022/08/01 02:20:20;;;;;;;14.02;6.50;;;;;;;17.47;100.00;100252.38;5136071;27;20474;-81
2022/08/01 02:22:53;;;;;;;16.67;8.00;;;;;;;17.49;100.00;100252.78;5135757;27;20020;-81
2022/08/01 02:25:36;;;;;;;15.05;7.07;;;;;;;17.54;100.00;100246.13;5135585;27;20062;-82
2022/08/01 02:28:06;;;;;;;15.38;7.55;;;;;;;17.50;100.00;100246.09;5117229;27;20457;-82
2022/08/01 02:30:36;;;;;;;17.67;7.72;;;;;;;17.49;100.00;100241.75;5135399;27;20042;-82
2022/08/01 02:33:22;;;;;;;16.92;7.13;;;;;;;17.55;100.00;100247.72;5135621;27;20118;-81
2022/08/01 02:35:56;;;;;;;15.77;7.03;;;;;;;17.47;100.00;100238.59;5135269;27;20015;-81
2022/08/01 02:38:25;;;;;;;17.45;7.72;;;;;;;17.45;100.00;100247.22;5135247;27;20192;-80
2022/08/01 02:40:52;;;;;;;16.95;7.55;;;;;;;17.45;100.00;100238.94;5116247;27;20039;-81
2022/08/01 02:43:21;;;;;;;14.48;6.95;;;;;;;17.44;100.00;100244.84;5135416;27;20101;-81
2022/08/01 02:45:53;;;;;;;17.30;8.00;;;;;;;17.44;100.00;100242.09;5135142;27;20027;-81
2022/08/01 02:48:20;;;;;;;15.95;7.18;;;;;;;17.45;100.00;100238.94;5135115;27;20462;-82
2022/08/01 02:50:48;;;;;;;18.65;7.53;;;;;;;17.45;100.00;100233.44;5135480;27;20078;-82
2022/08/01 02:53:16;;;;;;;14.98;7.13;;;;;;;17.48;100.00;100244.91;5135192;27;20038;-82
2022/08/01 02:55:44;;;;;;;15.75;7.13;;;;;;;17.46;100.00;100236.97;5135163;27;20053;-81
2022/08/01 02:58:13;;;;;;;15.43;7.05;;;;;;;17.47;100.00;100232.28;5116815;27;20035;-81
2022/08/01 03:00:41;;;;;;;21.20;7.75;;;;;;;17.47;100.00;100230.34;5135208;27;20064;-81
2022/08/01 03:03:08;;;;;;;19.88;7.82;;;;;;;17.47;100.00;100232.28;5134727;27;20466;-81
2022/08/01 03:05:35;;;;;;;19.00;7.70;;;;;;;17.48;100.00;100248.44;5134786;27;20462;-82
2022/08/01 03:08:02;;;;;;;19.67;8.48;;;;;;;17.46;100.00;100239.75;5134710;27;20480;-80
2022/08/01 03:10:28;;;;;;;19.95;8.88;;;;;;;17.49;100.00;100241.75;5135249;27;20119;-82
2022/08/01 03:12:55;;;;;;;21.48;9.10;;;;;;;17.50;100.00;100240.59;5134994;27;20084;-82
2022/08/01 03:15:22;;;;;;;23.05;9.43;;;;;;;17.49;100.00;100246.47;5135293;27;20114;-81
2022/08/01 03:17:51;;;;;;;18.85;7.95;;;;;;;17.48;100.00;100244.91;5134889;27;20056;-81
2022/08/01 03:20:19;;;;;;;20.35;8.80;;;;;;;17.53;100.00;100247.28;5135049;27;20027;-80
2022/08/01 03:22:47;;;;;;;20.50;8.70;;;;;;;17.56;100.00;100239.06;5134415;27;20383;-80
2022/08/01 03:25:15;;;;;;;19.48;9.25;;;;;;;17.58;100.00;100244.97;5134837;27;20031;-81
2022/08/01 03:27:43;;;;;;;19.85;8.82;;;;;;;17.55;100.00;100251.25;5116746;27;20043;-79
2022/08/01 03:30:10;;;;;;;22.08;10.25;;;;;;;17.51;100.00;100242.16;5134532;27;20458;-81
2022/08/01 03:32:37;;;;;;;22.75;9.80;;;;;;;17.53;100.00;100255.56;5134393;27;20098;-80
2022/08/01 03:35:03;;;;;;;20.92;9.13;;;;;;;17.53;100.00;100252.81;5134696;27;20095;-81
2022/08/01 03:37:42;;;;;;;25.88;9.85;;;;;;;17.57;100.00;100251.66;5134170;27;20529;-82
2022/08/01 03:40:14;;;;;;;23.20;10.70;;;;;;;17.55;100.00;100264.22;5134194;27;20031;-82
2022/08/01 03:42:56;;;;;;;23.83;9.50;;;;;;;17.54;100.00;100257.94;5115968;27;20359;-82
2022/08/01 03:45:27;;;;;;;24.92;10.85;;;;;;;17.55;100.00;100259.50;5134091;27;20031;-82
2022/08/01 03:47:58;;;;;;;24.67;9.63;;;;;;;17.67;100.00;100258.44;5116005;27;20024;-82
2022/08/01 03:50:24;;;;;;;24.17;11.05;;;;;;;17.62;100.00;100265.06;5115906;28;20367;-82
2022/08/01 03:52:51;;;;;;;30.23;12.00;;;;;;;17.61;100.00;100263.50;5132789;27;20074;-82
2022/08/01 03:55:18;;;;;;;26.42;10.88;;;;;;;17.57;100.00;100261.88;5116027;27;20027;-81
2022/08/01 03:57:45;;;;;;;31.65;11.43;;;;;;;17.52;100.00;100263.03;5134217;27;20027;-81
2022/08/01 04:00:11;;;;;;;23.40;9.80;;;;;;;17.52;100.00;100263.03;5133753;27;20385;-81
2022/08/01 04:02:38;;;;;;;24.35;10.57;;;;;;;17.54;100.00;100263.44;5134045;27;20027;-81
2022/08/01 04:05:04;;;;;;;27.52;11.98;;;;;;;17.52;100.00;100256.72;5133973;28;20030;-81
2022/08/01 04:07:32;;;;;;;29.33;11.20;;;;;;;17.50;100.00;100248.06;5115758;28;20399;-82
2022/08/01 04:09:57;;;;;;;24.73;10.23;;;;;;;17.50;100.00;100251.59;5133751;28;20431;-82
2022/08/01 04:12:23;;;;;;;26.33;10.43;;;;;;;17.50;100.00;100250.81;5133501;28;20147;-82
2022/08/01 04:14:49;;;;;;;;;;;;;;;17.49;100.00;100254.72;5134472;28;20057;-82
2022/08/01 04:17:15;;;;;;;21.25;10.18;;;;;;;17.50;100.00;100265.38;5133757;28;19997;-82
2022/08/01 04:19:41;;;;;;;24.55;10.50;;;;;;;17.51;100.00;100257.91;5134095;28;20112;-82
2022/08/01 04:22:09;;;;;;;26.02;9.55;;;;;;;17.55;100.00;100254.00;5133968;28;20042;-81
2022/08/01 04:24:36;;;;;;;21.67;9.63;;;;;;;17.62;100.00;100253.28;5133887;28;20027;-82
2022/08/01 04:27:09;;;;;;;20.95;9.55;;;;;;;17.73;100.00;100257.75;5133505;28;20020;-82
2022/08/01 04:29:36;;;;;;;23.17;9.00;;;;;;;17.67;100.00;100262.00;5133588;28;20457;-82
2022/08/01 04:32:02;;;;;;;18.05;9.15;;;;;;;17.76;100.00;100263.66;5133605;28;20046;-83
2022/08/01 04:34:31;;;;;;;22.40;9.70;;;;;;;17.66;100.00;100265.91;5133722;28;20098;-81
2022/08/01 04:37:00;;;;;;;21.63;9.73;;;;;;;17.82;100.00;100271.22;5133895;28;20031;-83
2022/08/01 04:39:28;;;;;;;27.02;10.95;;;;;;;17.71;100.00;100282.13;5115282;28;20044;-82
2022/08/01 04:41:56;;;;;;;17.60;8.68;;;;;;;17.69;100.00;100292.72;5133421;28;20039;-82
2022/08/01 04:44:23;;;;;;;19.95;9.07;;;;;;;17.68;100.00;100280.13;5133736;28;20029;-83
2022/08/01 04:46:49;;;;;;;21.38;8.70;;;;;;;17.77;100.00;100282.56;5134032;28;20062;-83
2022/08/01 04:49:16;;;;;;;23.23;9.23;;;;;;;17.69;100.00;100287.22;5133522;28;20080;-83
2022/08/01 04:51:59;;;;;;;18.10;8.95;;;;;;;17.66;100.00;100279.69;5133765;28;20085;-83
2022/08/01 04:54:26;;;;;;;18.75;9.13;;;;;;;17.66;100.00;100285.19;5115348;28;20068;-83
2022/08/01 04:56:59;;;;;;;21.88;8.43;;;;;;;17.82;100.00;100290.50;5133383;28;20389;-82
2022/08/01 04:59:40;;;;;;;19.75;8.95;;;;;;;17.71;100.00;100287.63;5133899;28;20027;-82
2022/08/01 05:02:18;;;;;;;18.30;7.88;;;;;;;17.75;100.00;100287.66;5133657;28;20073;-83
2022/08/01 05:04:45;;;;;;;21.10;9.25;;;;;;;17.76;100.00;100289.25;5135644;27;20114;-83
2022/08/01 05:07:12;;;;;;;18.95;8.30;;;;;;;17.71;100.00;100284.88;5138142;27;20023;-83
2022/08/01 05:09:41;;;;;;;23.90;10.15;;;;;;;17.63;100.00;100288.69;5137041;27;20351;-83
2022/08/01 05:12:07;;;;;;;23.38;10.65;;;;;;;17.57;100.00;100295.72;5118517;27;20031;-82
2022/08/01 05:14:33;;;;;;;22.35;9.52;;;;;;;17.61;100.00;100304.00;5136771;27;20031;-83
2022/08/01 05:17:03;;;;;;;22.25;10.10;;;;;;;17.46;100.00;100300.28;5136927;27;20057;-83
2022/08/01 05:19:31;;;;;;;20.88;8.45;;;;;;;17.45;100.00;100299.50;5136818;27;20047;-83
2022/08/01 05:22:07;;;;;;;18.45;8.02;;;;;;;17.56;100.00;100304.34;5138794;27;20027;-84
2022/08/01 05:24:34;;;;;;;19.35;8.25;;;;;;;17.42;100.00;100304.97;5139639;27;20110;-83
2022/08/01 05:27:00;;;;;;;19.83;8.32;;;;;;;17.42;100.00;100304.97;5138248;27;20047;-84
2022/08/01 05:29:26;;;;;;;19.98;8.50;;;;;;;17.48;100.00;100317.25;5137558;27;20080;-83
2022/08/01 05:31:52;;;;;;;20.15;8.82;;;;;;;17.44;100.00;100313.66;5138345;27;20031;-83
2022/08/01 05:34:17;;;;;;;16.83;7.88;;;;;;;17.41;100.00;100311.66;5138404;27;20049;-84
2022/08/01 05:36:43;;;;;;;20.45;9.00;;;;;;;17.40;100.00;100326.59;5137447;27;20118;-85
2022/08/01 05:39:08;;;;;;;;;;;;;;;17.44;100.00;100327.41;5137198;27;20035;-83
2022/08/01 05:41:36;;;;;;;17.80;8.03;;;;;;;17.40;100.00;100330.13;5136331;27;19911;-82
2022/08/01 05:44:01;;;;;;;22.02;8.13;;;;;;;17.42;100.00;100329.75;5118029;27;20731;-86
2022/08/01 05:46:26;;;;;;;21.83;8.57;;;;;;;17.46;100.00;100325.06;5136804;27;20156;-86
2022/08/01 05:48:52;;;;;;;20.58;8.27;;;;;;;17.51;100.00;100324.75;5137019;27;20031;-86
2022/08/01 05:51:17;;;;;;;;;;;;;;;17.50;100.00;100333.41;5119116;27;20412;-85
2022/08/01 05:53:42;;;;;;;20.20;7.53;;;;;;;17.57;100.00;100328.75;5136897;27;19911;-87
2022/08/01 05:56:07;;;;;;;17.58;7.75;;;;;;;17.54;100.00;100329.50;5137362;27;20023;-86
2022/08/01 05:58:33;;;;;;;16.02;7.15;;;;;;;17.57;100.00;100331.50;5120223;27;20054;-86
2022/08/01 06:00:58;;;;;;;;;;;;;;;17.66;100.00;100333.97;5146486;27;20041;-86
2022/08/01 06:03:24;;;;;;;17.92;7.15;;;;;;;17.61;100.00;100334.28;5147562;27;20396;-85
2022/08/01 06:05:51;;;;;;;16.42;7.20;;;;;;;17.58;100.00;100330.31;5140300;27;20050;-87
2022/08/01 06:08:16;;;;;;;15.32;6.40;;;;;;;17.58;100.00;100330.31;5138497;27;20084;-86
2022/08/01 06:10:41;;;;;;;17.17;6.68;;;;;;;17.65;100.00;100335.94;5119976;27;20035;-88
2022/08/01 06:13:07;;;;;;;15.60;6.88;;;;;;;17.62;100.00;100339.41;5137943;27;20038;-87
2022/08/01 06:15:32;;;;;;;;;;;;;;;17.61;100.00;100334.28;5137089;27;20084;-88
2022/08/01 06:17:57;;;;;;;15.20;6.17;;;;;;;17.60;100.00;100339.00;5137360;27;19964;-87
2022/08/01 06:20:23;;;;;;;;;;;;;;;17.51;100.00;100334.97;5138080;27;20292;-87
2022/08/01 06:22:48;;;;;;;18.67;7.28;;;;;;;17.62;100.00;100335.88;5143789;27;20018;-88
2022/08/01 06:25:13;;;;;;;13.55;5.35;;;;;;;17.74;100.00;100338.41;5146518;27;20031;-89
2022/08/01 06:27:39;;;;;;;;;;;;;;;17.78;99.15;100336.47;5139910;27;20034;-81
2022/08/01 06:30:07;;;;;;;11.57;4.63;;;;;;;17.85;97.57;100333.81;5135560;27;19957;-81
2022/08/01 06:32:33;;;;;;;11.20;5.43;;;;;;;17.91;97.25;100331.47;5116933;27;20397;-79
2022/08/01 06:34:58;;;;;;;12.25;5.82;;;;;;;17.93;96.76;100334.66;5134910;27;20034;-79
2022/08/01 06:37:24;;;;;;;10.15;5.50;;;;;;;18.02;97.59;100337.91;5135270;27;20027;-79
2022/08/01 06:39:49;;;;;;;9.90;5.22;;;;;;;18.12;97.65;100334.44;5135221;27;20037;-78
2022/08/01 06:42:15;;;;;;;;;;;;;;;18.25;95.63;100332.19;5135451;27;20107;-79
2022/08/01 06:44:40;;;;;;;9.27;4.72;;;;;;;18.33;95.54;100337.38;5134908;27;20423;-79
2022/08/01 06:47:06;;;;;;;10.18;5.10;;;;;;;18.40;96.28;100336.63;5134841;27;20027;-79
2022/08/01 06:49:31;;;;;;;11.98;5.53;;;;;;;18.34;95.05;100336.22;5134563;27;20375;-80
2022/08/01 06:51:57;;;;;;;12.25;5.22;;;;;;;18.28;94.77;100340.47;5135523;27;20056;-80
2022/08/01 06:54:22;;;;;;;11.68;4.88;;;;;;;18.36;94.90;100332.28;5134554;27;20537;-80
2022/08/01 06:56:48;;;;;;;11.23;4.53;;;;;;;18.44;95.35;100342.19;5134512;27;20030;-80
2022/08/01 06:59:13;;;;;;;8.10;4.68;;;;;;;18.36;94.64;100341.34;5116521;27;20481;-81
2022/08/01 07:01:38;;;;;;;8.35;3.95;;;;;;;18.49;94.54;100337.13;5134716;27;20035;-81
2022/08/01 07:04:04;;;;;;;9.32;4.53;;;;;;;18.60;94.07;100337.19;5134683;27;20039;-81
2022/08/01 07:06:29;;;;;;;8.60;4.22;;;;;;;18.59;94.02;100333.63;5134510;27;20050;-81
2022/08/01 07:08:55;;;;;;;8.15;4.43;;;;;;;18.82;93.44;100332.63;5134677;27;20031;-81
2022/08/01 07:11:21;;;;;;;9.52;4.20;;;;;;;19.12;91.84;100327.66;5135097;27;20023;-83
2022/08/01 07:13:47;;;;;;;7.20;4.00;;;;;;;19.34;91.04;100327.78;5134397;27;20031;-81
2022/08/01 07:16:13;;;;;;;8.65;3.85;;;;;;;19.62;90.31;100325.09;5116850;27;20111;-83
2022/08/01 07:18:39;;;;;;;11.02;4.68;;;;;;;19.76;89.18;100325.16;5135089;27;20055;-81
2022/08/01 07:21:04;;;;;;;6.38;3.55;;;;;;;19.76;88.74;100332.63;5135059;27;20073;-81
2022/08/01 07:23:30;;;;;;;9.23;4.00;;;;;;;19.76;88.49;100336.19;5134680;27;20386;-81
2022/08/01 07:25:55;;;;;;;7.90;4.07;;;;;;;19.75;87.81;100336.59;5134561;27;20027;-81
2022/08/01 07:28:20;;;;;;;9.52;4.45;;;;;;;19.47;87.58;100332.53;5115848;27;20020;-81
2022/08/01 07:30:46;;;;;;;8.60;4.07;;;;;;;19.41;88.44;100333.31;5134188;27;20102;-81
2022/08/01 07:33:11;;;;;;;8.18;3.85;;;;;;;19.51;86.65;100333.34;5134078;27;20481;-80
2022/08/01 07:35:38;;;;;;;7.95;4.00;;;;;;;19.40;87.45;100337.25;5136520;27;20031;-80
2022/08/01 07:38:04;;;;;;;8.57;4.93;;;;;;;19.55;86.77;100327.06;5134519;27;20029;-82
2022/08/01 07:40:30;;;;;;;9.48;5.28;;;;;;;19.84;87.18;100334.25;5116201;27;20027;-81
2022/08/01 07:42:55;;;;;;;9.68;5.50;;;;;;;20.03;86.16;100328.34;5133895;27;20049;-81
2022/08/01 07:45:20;;;;;;;11.95;5.72;;;;;;;20.18;85.05;100337.44;5133960;27;20042;-81
2022/08/01 07:47:46;;;;;;;10.60;6.32;;;;;;;20.18;84.23;100340.22;5134624;27;20027;-81
2022/08/01 07:50:12;;;;;;;8.35;4.97;;;;;;;20.19;83.58;100343.78;5134312;27;20084;-81
2022/08/01 07:52:38;;;;;;;8.98;5.20;;;;;;;20.07;83.84;100337.44;5118357;27;20031;-87
2022/08/01 07:55:04;;;;;;;10.82;5.40;;;;;;;20.02;84.23;100332.31;5150256;27;20023;-87
2022/08/01 07:57:29;;;;;;;7.82;4.55;;;;;;;19.95;83.40;100339.78;5148798;27;20164;-88
2022/08/01 08:00:03;;;;;;;8.18;3.90;;;;;;;20.12;84.21;100339.78;5154886;27;20015;-89
2022/08/01 08:02:28;;;;;;;7.43;4.53;;;;;;;20.29;82.54;100338.22;5132515;27;20027;-87
2022/08/01 08:04:54;;;;;;;10.27;4.00;;;;;;;20.43;81.22;100337.47;5135992;22;20079;-92
2022/08/01 08:07:19;;;;;;;5.63;3.03;;;;;;;20.64;80.20;100340.19;5069243;28;20084;-91
2022/08/01 08:09:44;;;;;;;6.07;2.75;;;;;;;20.65;79.40;100339.00;5085810;28;20028;-88
2022/08/01 08:12:10;;;;;;;7.07;3.22;;;;;;;20.78;77.74;100336.63;5085313;28;20033;-88
2022/08/01 08:14:36;;;;;;;6.30;3.03;;;;;;;20.36;77.89;100338.25;5092418;28;20025;-88
2022/08/01 08:17:01;;;;;;;6.05;3.38;;;;;;;20.37;78.83;100348.13;5090007;28;20036;-89
2022/08/01 08:19:26;;;;;;;5.32;2.75;;;;;;;20.50;79.65;100345.78;5090998;28;20028;-88
2022/08/01 08:21:52;;;;;;;5.40;2.40;;;;;;;20.53;77.92;100342.22;5087526;28;20029;-88
2022/08/01 08:24:20;;;;;;;5.55;2.85;;;;;;;20.56;77.45;100340.63;5083504;28;20033;-87
2022/08/01 08:26:47;;;;;;;6.65;3.42;;;;;;;20.73;76.89;100342.56;5091313;28;20063;-86
2022/08/01 08:29:18;;;;;;;6.50;3.67;;;;;;;20.65;75.89;100341.78;5073477;28;20024;-89
2022/08/01 08:31:44;;;;;;;6.13;3.50;;;;;;;20.84;76.58;100345.34;5077800;28;20096;-86
2022/08/01 08:34:09;;;;;;;8.02;4.25;;;;;;;20.52;77.76;100348.94;5060655;28;20082;-88
2022/08/01 08:36:35;;;;;;;13.10;5.60;;;;;;;20.51;78.16;100357.63;5083909;28;20084;-87
2022/08/01 08:39:01;;;;;;;8.55;4.72;;;;;;;20.41;78.69;100360.00;5076741;28;20379;-88
2022/08/01 08:41:26;;;;;;;8.13;4.88;;;;;;;20.45;78.95;100359.19;5082530;28;20118;-88
2022/08/01 08:43:53;;;;;;;8.55;5.05;;;;;;;20.39;78.46;100362.34;5080986;28;20088;-86
2022/08/01 08:46:19;;;;;;;8.90;4.90;;;;;;;20.59;77.29;100362.75;5080280;28;20086;-89
2022/08/01 08:48:46;;;;;;;6.15;3.38;;;;;;;20.77;77.30;100361.94;5082299;28;20036;-88
2022/08/01 08:51:12;;;;;;;6.30;3.20;;;;;;;21.24;74.75;100357.88;5081495;28;20119;-88
2022/08/01 08:53:43;;;;;;;5.43;2.40;;;;;;;21.17;75.41;100364.22;5079248;28;20037;-86
2022/08/01 08:56:12;;;;;;;5.82;2.38;;;;;;;20.82;74.59;100370.59;5059504;28;20460;-84
2022/08/01 08:58:38;;;;;;;4.53;2.40;;;;;;;20.54;75.80;100376.97;5075676;28;20044;-84
2022/08/01 09:01:10;;;;;;;5.85;2.97;;;;;;;20.27;77.11;100373.78;5057714;28;20033;-85
2022/08/01 09:03:36;;;;;;;5.07;2.80;;;;;;;20.26;77.66;100374.16;5075566;28;20039;-85
2022/08/01 09:06:01;;;;;;;4.68;2.40;;;;;;;20.53;76.66;100375.41;5076306;28;20029;-87
2022/08/01 09:08:27;;;;;;;6.38;3.08;;;;;;;20.75;75.79;100378.16;5075668;28;20035;-85
2022/08/01 09:10:53;;;;;;;5.45;3.20;;;;;;;20.71;75.15;100369.84;5075438;28;20025;-85
2022/08/01 09:13:18;;;;;;;5.57;3.30;;;;;;;20.70;73.83;100373.81;5057895;28;20082;-85
2022/08/01 09:15:50;;;;;;;4.78;2.90;;;;;;;20.82;73.61;100369.81;5058247;28;20457;-86
2022/08/01 09:18:32;;;;;;;5.72;3.03;;;;;;;21.06;73.36;100371.75;5076056;28;20088;-87
2022/08/01 09:21:25;;;;;;;4.75;2.90;;;;;;;21.30;74.05;100373.69;5076601;28;20025;-86
2022/08/01 09:23:52;;;;;;;6.03;2.63;;;;;;;21.32;71.95;100376.03;5055532;28;20040;-85
2022/08/01 09:26:20;;;;;;;5.47;2.13;;;;;;;21.21;72.06;100376.06;5075392;28;20048;-84
2022/08/01 09:28:47;;;;;;;4.20;1.80;;;;;;;21.21;73.43;100384.38;5076283;28;20036;-85
2022/08/01 09:31:16;;;;;;;4.40;2.28;;;;;;;21.35;72.14;100388.34;5076017;28;20024;-85
2022/08/01 09:33:53;;;;;;;4.15;2.35;;;;;;;21.35;70.94;100388.34;5075259;28;20029;-84
2022/08/01 09:36:22;;;;;;;5.13;2.70;;;;;;;21.27;71.67;100385.56;5057535;28;20082;-87
2022/08/01 09:38:51;;;;;;;4.20;2.63;;;;;;;21.41;70.33;100389.47;5075699;28;20496;-86
2022/08/01 09:41:17;;;;;;;4.05;2.30;;;;;;;21.51;70.82;100385.88;5076408;28;20448;-89
2022/08/01 09:43:48;;;;;;;3.45;2.05;;;;;;;21.76;69.75;100386.53;5078261;28;20082;-88
2022/08/01 09:46:14;;;;;;;4.75;2.20;;;;;;;22.05;67.06;100386.41;5078005;28;20081;-85
2022/08/01 09:48:55;;;;;;;4.85;2.47;;;;;;;22.15;67.20;100386.34;5057503;28;20115;-85
2022/08/01 09:51:35;;;;;;;6.93;2.65;;;;;;;21.73;67.57;100394.88;5075615;28;20025;-82
2022/08/01 09:54:04;;;;;;;3.90;2.10;;;;;;;21.81;68.08;100397.19;5074923;28;20040;-84
2022/08/01 09:56:38;;;;;;;4.13;2.10;;;;;;;22.25;67.79;100395.00;5075277;28;20040;-86
2022/08/01 09:59:04;;;;;;;8.02;2.92;;;;;;;22.35;67.12;100389.38;5077059;28;20024;-86
2022/08/01 10:01:46;;;;;;;5.82;3.22;;;;;;;22.22;67.82;100393.81;5076266;28;20029;-89
2022/08/01 10:04:17;;;;;;;3.85;2.05;;;;;;;22.00;66.53;100390.34;5075953;28;20067;-86
2022/08/01 10:06:45;;;;;;;5.30;2.40;;;;;;;22.03;67.25;100397.09;5075863;28;20028;-88
2022/08/01 10:09:12;;;;;;;3.92;2.10;;;;;;;22.25;67.27;100390.25;5075461;28;20032;-86
2022/08/01 10:11:40;;;;;;;6.70;2.90;;;;;;;21.81;68.30;100391.66;5075010;28;20039;-86
2022/08/01 10:14:06;;;;;;;4.57;2.22;;;;;;;21.81;66.78;100391.66;5075646;28;20368;-85
2022/08/01 10:16:34;;;;;;;5.50;2.05;;;;;;;21.67;67.87;100397.31;5083514;28;20012;-88
2022/08/01 10:19:00;;;;;;;3.65;1.67;;;;;;;21.43;68.81;100403.72;5086501;28;20040;-87
2022/08/01 10:21:27;;;;;;;5.25;1.75;;;;;;;21.28;68.64;100398.22;5076723;28;20074;-82
2022/08/01 10:23:56;;;;;;;3.38;1.70;;;;;;;20.97;69.24;100399.84;5074698;28;20422;-85
2022/08/01 10:26:24;;;;;;;3.20;1.25;;;;;;;21.08;70.32;100399.84;5075827;28;20088;-86
2022/08/01 10:28:50;;;;;;;5.47;1.95;;;;;;;21.07;69.79;100403.00;5075045;28;20063;-86
2022/08/01 10:31:17;;;;;;;4.03;1.92;;;;;;;21.38;68.62;100401.38;5075444;28;20055;-83
2022/08/01 10:33:43;;;;;;;4.80;2.80;;;;;;;21.66;67.98;100395.69;5077781;28;20032;-86
2022/08/01 10:36:10;;;;;;;5.15;2.50;;;;;;;22.05;67.42;100394.75;5058313;28;20033;-85
2022/08/01 10:38:36;;;;;;;3.45;1.63;;;;;;;22.20;65.71;100396.22;5074671;28;20028;-83
2022/08/01 10:41:04;;;;;;;3.50;1.50;;;;;;;21.93;67.15;100399.53;5074442;28;20028;-81
2022/08/01 10:43:31;;;;;;;2.42;0.98;;;;;;;21.86;67.59;100401.56;5056173;28;20020;-85
2022/08/01 10:45:56;;;;;;;2.78;1.08;;;;;;;21.73;68.24;100403.19;5074683;28;20400;-84
2022/08/01 10:48:35;;;;;;;2.22;1.00;;;;;;;21.70;69.05;100402.03;5074121;28;20028;-86
2022/08/01 10:51:03;;;;;;;2.15;0.82;;;;;;;21.53;68.87;100400.91;5074424;28;20035;-85
2022/08/01 10:53:29;;;;;;;2.28;0.95;;;;;;;21.47;69.69;100399.72;5056124;28;20475;-85
2022/08/01 10:56:02;;;;;;;2.20;0.80;;;;;;;21.15;69.36;100393.47;5055283;28;20016;-82
2022/08/01 10:58:31;;;;;;;2.90;1.10;;;;;;;21.20;70.12;100401.41;5074346;28;20159;-84
2022/08/01 11:01:22;;;;;;;2.60;1.20;;;;;;;21.31;70.21;100402.16;5055876;28;20467;-85
2022/08/01 11:04:08;;;;;;;3.03;1.30;;;;;;;21.46;69.29;100402.91;5055788;28;20506;-85
2022/08/01 11:06:33;;;;;;;3.95;1.98;;;;;;;21.62;67.75;100401.25;5055575;28;20032;-84
2022/08/01 11:09:20;;;;;;;3.30;1.80;;;;;;;22.04;66.51;100393.13;5074181;28;20052;-81
2022/08/01 11:12:09;;;;;;;3.92;1.63;;;;;;;22.18;65.56;100391.09;5059988;28;20294;-82
2022/08/01 11:15:15;;;;;;;3.35;1.55;;;;;;;22.21;64.44;100392.25;5074075;28;20024;-84
2022/08/01 11:17:49;;;;;;;3.85;1.40;;;;;;;22.07;66.19;100395.13;5039510;28;20040;-82
2022/08/01 11:20:20;;;;;;;1.63;0.75;;;;;;;21.87;67.15;100394.81;5074090;28;20482;-85
2022/08/01 11:23:01;;;;;;;1.77;0.75;;;;;;;21.72;67.37;100399.63;5074454;28;20055;-83
2022/08/01 11:25:48;;;;;;;2.30;0.80;;;;;;;21.67;67.80;100402.03;5073886;28;20108;-85